sensor_id;sensor_type;location;lat;lon;timestamp;P1;durP1;ratioP1;P2;durP2;ratioP2
4138;SDS011;2083;51.034;6.996;2022-09-17T00:00:45;6.57;;;1.47;;
4138;SDS011;2083;51.034;6.996;2022-09-17T00:03:12;1.70;;;1.50;;
4138;SDS011;2083;51.034;6.996;2022-09-17T00:05:38;16.20;;;1.80;;
4138;SDS011;2083;51.034;6.996;2022-09-17T00:08:05;4.47;;;1.77;;
4138;SDS011;2083;51.034;6.996;2022-09-17T00:10:36;3.73;;;1.40;;
4138;SDS011;2083;51.034;6.996;2022-09-17T00:13:03;3.40;;;1.40;;
4138;SDS011;2083;51.034;6.996;2022-09-17T00:15:29;14.57;;;3.40;;
4138;SDS011;2083;51.034;6.996;2022-09-17T00:17:55;1.57;;;1.47;;
4138;SDS011;2083;51.034;6.996;2022-09-17T00:20:25;9.53;;;1.67;;
4138;SDS011;2083;51.034;6.996;2022-09-17T00:22:51;3.60;;;1.57;;
4138;SDS011;2083;51.034;6.996;2022-09-17T00:25:18;6.60;;;1.20;;
4138;SDS011;2083;51.034;6.996;2022-09-17T00:27:44;4.30;;;1.80;;
4138;SDS011;2083;51.034;6.996;2022-09-17T00:30:10;1.93;;;1.20;;
4138;SDS011;2083;51.034;6.996;2022-09-17T00:32:37;6.80;;;1.67;;
4138;SDS011;2083;51.034;6.996;2022-09-17T00:35:03;4.50;;;2.03;;
4138;SDS011;2083;51.034;6.996;2022-09-17T00:37:29;7.33;;;1.80;;
4138;SDS011;2083;51.034;6.996;2022-09-17T00:39:55;3.63;;;1.60;;
4138;SDS011;2083;51.034;6.996;2022-09-17T00:42:21;4.20;;;1.70;;
4138;SDS011;2083;51.034;6.996;2022-09-17T00:44:48;4.80;;;1.50;;
4138;SDS011;2083;51.034;6.996;2022-09-17T00:47:16;12.60;;;1.90;;
4138;SDS011;2083;51.034;6.996;2022-09-17T00:49:43;3.57;;;2.57;;
4138;SDS011;2083;51.034;6.996;2022-09-17T00:52:12;4.63;;;1.57;;
4138;SDS011;2083;51.034;6.996;2022-09-17T00:54:40;4.03;;;1.23;;
4138;SDS011;2083;51.034;6.996;2022-09-17T00:57:07;1.97;;;1.87;;
4138;SDS011;2083;51.034;6.996;2022-09-17T00:59:33;11.07;;;2.00;;
4138;SDS011;2083;51.034;6.996;2022-09-17T01:02:00;5.43;;;1.80;;
4138;SDS011;2083;51.034;6.996;2022-09-17T01:04:26;6.90;;;1.77;;
4138;SDS011;2083;51.034;6.996;2022-09-17T01:07:09;7.03;;;2.17;;
4138;SDS011;2083;51.034;6.996;2022-09-17T01:12:17;1.73;;;1.40;;
4138;SDS011;2083;51.034;6.996;2022-09-17T01:27:46;7.70;;;1.77;;
4138;SDS011;2083;51.034;6.996;2022-09-17T01:35:40;2.97;;;1.20;;
4138;SDS011;2083;51.034;6.996;2022-09-17T01:38:12;6.00;;;1.93;;
4138;SDS011;2083;51.034;6.996;2022-09-17T01:40:51;5.93;;;1.90;;
4138;SDS011;2083;51.034;6.996;2022-09-17T01:43:31;7.80;;;1.60;;
4138;SDS011;2083;51.034;6.996;2022-09-17T01:46:02;4.30;;;2.13;;
4138;SDS011;2083;51.034;6.996;2022-09-17T01:48:30;3.23;;;1.50;;
4138;SDS011;2083;51.034;6.996;2022-09-17T01:51:04;4.40;;;2.07;;
4138;SDS011;2083;51.034;6.996;2022-09-17T01:53:34;7.40;;;1.80;;
4138;SDS011;2083;51.034;6.996;2022-09-17T01:56:02;9.80;;;2.60;;
4138;SDS011;2083;51.034;6.996;2022-09-17T01:58:30;8.43;;;2.10;;
4138;SDS011;2083;51.034;6.996;2022-09-17T02:01:01;6.33;;;2.37;;
4138;SDS011;2083;51.034;6.996;2022-09-17T02:03:42;3.80;;;1.60;;
4138;SDS011;2083;51.034;6.996;2022-09-17T02:06:11;11.23;;;2.37;;
4138;SDS011;2083;51.034;6.996;2022-09-17T02:08:43;5.23;;;1.90;;
4138;SDS011;2083;51.034;6.996;2022-09-17T02:11:11;4.23;;;1.70;;
4138;SDS011;2083;51.034;6.996;2022-09-17T02:13:42;3.03;;;2.10;;
4138;SDS011;2083;51.034;6.996;2022-09-17T02:16:11;7.23;;;2.37;;
4138;SDS011;2083;51.034;6.996;2022-09-17T02:21:11;11.07;;;2.07;;
4138;SDS011;2083;51.034;6.996;2022-09-17T02:23:49;4.87;;;1.73;;
4138;SDS011;2083;51.034;6.996;2022-09-17T02:26:17;4.80;;;1.70;;
4138;SDS011;2083;51.034;6.996;2022-09-17T02:28:54;5.00;;;1.63;;
4138;SDS011;2083;51.034;6.996;2022-09-17T02:31:21;6.73;;;1.90;;
4138;SDS011;2083;51.034;6.996;2022-09-17T02:33:48;12.57;;;2.03;;
4138;SDS011;2083;51.034;6.996;2022-09-17T02:36:14;5.50;;;2.13;;
4138;SDS011;2083;51.034;6.996;2022-09-17T02:38:42;10.40;;;1.97;;
4138;SDS011;2083;51.034;6.996;2022-09-17T02:41:15;7.60;;;1.73;;
4138;SDS011;2083;51.034;6.996;2022-09-17T02:46:27;11.63;;;1.93;;
4138;SDS011;2083;51.034;6.996;2022-09-17T02:56:56;17.30;;;2.03;;
4138;SDS011;2083;51.034;6.996;2022-09-17T03:02:08;5.57;;;2.80;;
4138;SDS011;2083;51.034;6.996;2022-09-17T03:04:37;6.97;;;1.70;;
4138;SDS011;2083;51.034;6.996;2022-09-17T03:07:04;6.87;;;1.83;;
4138;SDS011;2083;51.034;6.996;2022-09-17T03:09:31;4.53;;;2.40;;
4138;SDS011;2083;51.034;6.996;2022-09-17T03:11:58;16.53;;;2.50;;
4138;SDS011;2083;51.034;6.996;2022-09-17T03:14:24;14.90;;;3.47;;
4138;SDS011;2083;51.034;6.996;2022-09-17T03:16:49;3.83;;;2.13;;
4138;SDS011;2083;51.034;6.996;2022-09-17T03:19:15;11.10;;;2.63;;
4138;SDS011;2083;51.034;6.996;2022-09-17T03:21:41;3.43;;;1.73;;
4138;SDS011;2083;51.034;6.996;2022-09-17T03:24:07;6.47;;;1.97;;
4138;SDS011;2083;51.034;6.996;2022-09-17T03:26:35;6.63;;;1.83;;
4138;SDS011;2083;51.034;6.996;2022-09-17T03:29:01;8.23;;;2.37;;
4138;SDS011;2083;51.034;6.996;2022-09-17T03:31:27;5.97;;;1.93;;
4138;SDS011;2083;51.034;6.996;2022-09-17T03:33:53;8.93;;;2.10;;
4138;SDS011;2083;51.034;6.996;2022-09-17T03:36:19;6.53;;;1.53;;
4138;SDS011;2083;51.034;6.996;2022-09-17T03:38:45;4.03;;;1.67;;
4138;SDS011;2083;51.034;6.996;2022-09-17T03:41:11;5.97;;;1.60;;
4138;SDS011;2083;51.034;6.996;2022-09-17T03:43:37;9.43;;;1.60;;
4138;SDS011;2083;51.034;6.996;2022-09-17T03:46:04;3.50;;;1.90;;
4138;SDS011;2083;51.034;6.996;2022-09-17T03:48:30;3.97;;;1.67;;
4138;SDS011;2083;51.034;6.996;2022-09-17T03:50:59;9.20;;;2.03;;
4138;SDS011;2083;51.034;6.996;2022-09-17T03:53:25;8.97;;;1.77;;
4138;SDS011;2083;51.034;6.996;2022-09-17T03:55:51;2.40;;;1.70;;
4138;SDS011;2083;51.034;6.996;2022-09-17T03:58:17;4.70;;;1.60;;
4138;SDS011;2083;51.034;6.996;2022-09-17T04:00:43;2.53;;;1.40;;
4138;SDS011;2083;51.034;6.996;2022-09-17T04:03:09;7.10;;;1.87;;
4138;SDS011;2083;51.034;6.996;2022-09-17T04:05:35;2.40;;;1.50;;
4138;SDS011;2083;51.034;6.996;2022-09-17T04:08:01;8.57;;;1.30;;
4138;SDS011;2083;51.034;6.996;2022-09-17T04:10:27;6.23;;;1.57;;
4138;SDS011;2083;51.034;6.996;2022-09-17T04:12:53;15.70;;;1.87;;
4138;SDS011;2083;51.034;6.996;2022-09-17T04:15:19;2.63;;;1.30;;
4138;SDS011;2083;51.034;6.996;2022-09-17T04:17:45;3.33;;;1.70;;
4138;SDS011;2083;51.034;6.996;2022-09-17T04:20:11;6.43;;;1.83;;
4138;SDS011;2083;51.034;6.996;2022-09-17T04:22:37;19.07;;;1.97;;
4138;SDS011;2083;51.034;6.996;2022-09-17T04:25:03;5.93;;;1.63;;
4138;SDS011;2083;51.034;6.996;2022-09-17T04:27:29;4.23;;;1.37;;
4138;SDS011;2083;51.034;6.996;2022-09-17T04:29:55;6.37;;;1.40;;
4138;SDS011;2083;51.034;6.996;2022-09-17T04:32:21;4.07;;;1.57;;
4138;SDS011;2083;51.034;6.996;2022-09-17T04:34:47;2.27;;;1.00;;
4138;SDS011;2083;51.034;6.996;2022-09-17T04:37:13;4.87;;;1.43;;
4138;SDS011;2083;51.034;6.996;2022-09-17T04:39:39;6.30;;;1.67;;
4138;SDS011;2083;51.034;6.996;2022-09-17T04:42:04;9.13;;;1.40;;
4138;SDS011;2083;51.034;6.996;2022-09-17T04:44:30;5.93;;;1.50;;
4138;SDS011;2083;51.034;6.996;2022-09-17T04:46:56;4.87;;;2.07;;
4138;SDS011;2083;51.034;6.996;2022-09-17T04:49:22;5.87;;;1.87;;
4138;SDS011;2083;51.034;6.996;2022-09-17T04:51:48;11.63;;;1.60;;
4138;SDS011;2083;51.034;6.996;2022-09-17T04:54:14;8.63;;;1.23;;
4138;SDS011;2083;51.034;6.996;2022-09-17T04:56:40;9.00;;;2.30;;
4138;SDS011;2083;51.034;6.996;2022-09-17T04:59:06;15.97;;;1.90;;
4138;SDS011;2083;51.034;6.996;2022-09-17T05:01:32;10.70;;;1.63;;
4138;SDS011;2083;51.034;6.996;2022-09-17T05:03:58;5.40;;;1.33;;
4138;SDS011;2083;51.034;6.996;2022-09-17T05:06:24;10.77;;;1.63;;
4138;SDS011;2083;51.034;6.996;2022-09-17T05:08:50;11.17;;;2.40;;
4138;SDS011;2083;51.034;6.996;2022-09-17T05:11:16;8.93;;;2.23;;
4138;SDS011;2083;51.034;6.996;2022-09-17T05:13:42;3.80;;;1.30;;
4138;SDS011;2083;51.034;6.996;2022-09-17T05:16:08;5.90;;;1.23;;
4138;SDS011;2083;51.034;6.996;2022-09-17T05:18:34;9.50;;;1.73;;
4138;SDS011;2083;51.034;6.996;2022-09-17T05:21:00;12.47;;;1.60;;
4138;SDS011;2083;51.034;6.996;2022-09-17T05:23:26;7.03;;;1.50;;
4138;SDS011;2083;51.034;6.996;2022-09-17T05:25:56;1.60;;;1.17;;
4138;SDS011;2083;51.034;6.996;2022-09-17T05:28:22;14.50;;;1.97;;
4138;SDS011;2083;51.034;6.996;2022-09-17T05:30:47;11.53;;;1.53;;
4138;SDS011;2083;51.034;6.996;2022-09-17T05:33:13;6.27;;;1.47;;
4138;SDS011;2083;51.034;6.996;2022-09-17T05:35:39;8.93;;;1.50;;
4138;SDS011;2083;51.034;6.996;2022-09-17T05:38:08;10.53;;;1.67;;
4138;SDS011;2083;51.034;6.996;2022-09-17T05:40:33;12.53;;;1.87;;
4138;SDS011;2083;51.034;6.996;2022-09-17T05:43:02;3.67;;;1.53;;
4138;SDS011;2083;51.034;6.996;2022-09-17T05:45:28;7.50;;;1.87;;
4138;SDS011;2083;51.034;6.996;2022-09-17T05:47:55;13.40;;;2.40;;
4138;SDS011;2083;51.034;6.996;2022-09-17T05:50:22;12.13;;;2.27;;
4138;SDS011;2083;51.034;6.996;2022-09-17T05:52:48;12.77;;;1.40;;
4138;SDS011;2083;51.034;6.996;2022-09-17T05:55:14;11.10;;;2.00;;
4138;SDS011;2083;51.034;6.996;2022-09-17T05:57:40;14.53;;;2.10;;
4138;SDS011;2083;51.034;6.996;2022-09-17T06:00:06;8.40;;;2.50;;
4138;SDS011;2083;51.034;6.996;2022-09-17T06:02:32;6.10;;;1.70;;
4138;SDS011;2083;51.034;6.996;2022-09-17T06:04:58;7.00;;;2.37;;
4138;SDS011;2083;51.034;6.996;2022-09-17T06:07:25;8.17;;;2.30;;
4138;SDS011;2083;51.034;6.996;2022-09-17T06:09:51;14.97;;;2.30;;
4138;SDS011;2083;51.034;6.996;2022-09-17T06:12:17;18.47;;;3.00;;
4138;SDS011;2083;51.034;6.996;2022-09-17T06:14:43;8.20;;;4.83;;
4138;SDS011;2083;51.034;6.996;2022-09-17T06:17:09;12.07;;;2.40;;
4138;SDS011;2083;51.034;6.996;2022-09-17T06:19:35;8.80;;;1.83;;
4138;SDS011;2083;51.034;6.996;2022-09-17T06:22:01;20.73;;;2.57;;
4138;SDS011;2083;51.034;6.996;2022-09-17T06:24:29;4.80;;;1.10;;
4138;SDS011;2083;51.034;6.996;2022-09-17T06:26:55;13.70;;;2.43;;
4138;SDS011;2083;51.034;6.996;2022-09-17T06:29:21;13.93;;;2.40;;
4138;SDS011;2083;51.034;6.996;2022-09-17T06:31:47;8.03;;;2.27;;
4138;SDS011;2083;51.034;6.996;2022-09-17T06:34:13;11.17;;;2.10;;
4138;SDS011;2083;51.034;6.996;2022-09-17T06:36:39;12.43;;;1.90;;
4138;SDS011;2083;51.034;6.996;2022-09-17T06:39:05;7.03;;;1.53;;
4138;SDS011;2083;51.034;6.996;2022-09-17T06:41:32;9.60;;;1.60;;
4138;SDS011;2083;51.034;6.996;2022-09-17T06:43:58;18.87;;;2.20;;
4138;SDS011;2083;51.034;6.996;2022-09-17T06:46:24;7.43;;;2.00;;
4138;SDS011;2083;51.034;6.996;2022-09-17T06:48:50;8.90;;;1.43;;
4138;SDS011;2083;51.034;6.996;2022-09-17T06:51:16;8.87;;;1.67;;
4138;SDS011;2083;51.034;6.996;2022-09-17T06:53:42;3.67;;;1.80;;
4138;SDS011;2083;51.034;6.996;2022-09-17T06:56:08;3.40;;;1.40;;
4138;SDS011;2083;51.034;6.996;2022-09-17T06:58:34;4.60;;;1.40;;
4138;SDS011;2083;51.034;6.996;2022-09-17T07:01:06;5.53;;;1.00;;
4138;SDS011;2083;51.034;6.996;2022-09-17T07:03:32;8.40;;;1.70;;
4138;SDS011;2083;51.034;6.996;2022-09-17T07:05:58;6.50;;;1.50;;
4138;SDS011;2083;51.034;6.996;2022-09-17T07:08:24;2.47;;;0.90;;
4138;SDS011;2083;51.034;6.996;2022-09-17T07:10:55;5.93;;;1.30;;
4138;SDS011;2083;51.034;6.996;2022-09-17T07:13:21;9.07;;;2.00;;
4138;SDS011;2083;51.034;6.996;2022-09-17T07:15:51;4.90;;;1.30;;
4138;SDS011;2083;51.034;6.996;2022-09-17T07:18:17;10.73;;;1.67;;
4138;SDS011;2083;51.034;6.996;2022-09-17T07:20:43;8.00;;;1.77;;
4138;SDS011;2083;51.034;6.996;2022-09-17T07:23:09;9.20;;;1.53;;
4138;SDS011;2083;51.034;6.996;2022-09-17T07:25:35;8.17;;;1.10;;
4138;SDS011;2083;51.034;6.996;2022-09-17T07:28:01;6.30;;;1.30;;
4138;SDS011;2083;51.034;6.996;2022-09-17T07:30:27;5.67;;;1.20;;
4138;SDS011;2083;51.034;6.996;2022-09-17T07:32:53;8.30;;;1.77;;
4138;SDS011;2083;51.034;6.996;2022-09-17T07:35:19;14.03;;;1.23;;
4138;SDS011;2083;51.034;6.996;2022-09-17T07:37:45;6.10;;;1.70;;
4138;SDS011;2083;51.034;6.996;2022-09-17T07:40:12;8.80;;;1.90;;
4138;SDS011;2083;51.034;6.996;2022-09-17T07:42:38;7.03;;;1.20;;
4138;SDS011;2083;51.034;6.996;2022-09-17T07:45:04;7.60;;;1.60;;
4138;SDS011;2083;51.034;6.996;2022-09-17T07:47:30;2.93;;;1.00;;
4138;SDS011;2083;51.034;6.996;2022-09-17T07:49:57;4.33;;;1.20;;
4138;SDS011;2083;51.034;6.996;2022-09-17T07:52:22;4.43;;;1.20;;
4138;SDS011;2083;51.034;6.996;2022-09-17T07:54:48;6.80;;;1.50;;
4138;SDS011;2083;51.034;6.996;2022-09-17T07:57:14;16.37;;;1.90;;
4138;SDS011;2083;51.034;6.996;2022-09-17T07:59:40;12.27;;;1.60;;
4138;SDS011;2083;51.034;6.996;2022-09-17T08:02:12;22.00;;;1.40;;
4138;SDS011;2083;51.034;6.996;2022-09-17T08:04:40;2.63;;;1.50;;
4138;SDS011;2083;51.034;6.996;2022-09-17T08:07:06;7.73;;;1.40;;
4138;SDS011;2083;51.034;6.996;2022-09-17T08:09:35;3.83;;;1.00;;
4138;SDS011;2083;51.034;6.996;2022-09-17T08:12:01;10.67;;;2.00;;
4138;SDS011;2083;51.034;6.996;2022-09-17T08:14:27;17.50;;;2.43;;
4138;SDS011;2083;51.034;6.996;2022-09-17T08:16:53;9.40;;;1.43;;
4138;SDS011;2083;51.034;6.996;2022-09-17T08:19:19;8.03;;;1.30;;
4138;SDS011;2083;51.034;6.996;2022-09-17T08:21:45;9.77;;;1.20;;
4138;SDS011;2083;51.034;6.996;2022-09-17T08:24:11;7.63;;;1.30;;
4138;SDS011;2083;51.034;6.996;2022-09-17T08:26:37;6.93;;;1.73;;
4138;SDS011;2083;51.034;6.996;2022-09-17T08:29:04;4.13;;;1.00;;
4138;SDS011;2083;51.034;6.996;2022-09-17T08:31:31;2.17;;;0.73;;
4138;SDS011;2083;51.034;6.996;2022-09-17T08:33:57;5.50;;;1.00;;
4138;SDS011;2083;51.034;6.996;2022-09-17T08:36:24;12.67;;;1.10;;
4138;SDS011;2083;51.034;6.996;2022-09-17T08:38:53;6.70;;;1.10;;
4138;SDS011;2083;51.034;6.996;2022-09-17T08:41:24;7.20;;;1.20;;
4138;SDS011;2083;51.034;6.996;2022-09-17T08:44:13;7.90;;;1.60;;
4138;SDS011;2083;51.034;6.996;2022-09-17T08:46:47;8.73;;;1.13;;
4138;SDS011;2083;51.034;6.996;2022-09-17T08:49:23;9.90;;;2.00;;
4138;SDS011;2083;51.034;6.996;2022-09-17T08:54:23;7.37;;;1.23;;
4138;SDS011;2083;51.034;6.996;2022-09-17T08:56:57;3.70;;;1.30;;
4138;SDS011;2083;51.034;6.996;2022-09-17T08:59:31;10.33;;;2.03;;
4138;SDS011;2083;51.034;6.996;2022-09-17T09:01:59;4.67;;;1.27;;
4138;SDS011;2083;51.034;6.996;2022-09-17T09:07:37;6.13;;;1.33;;
4138;SDS011;2083;51.034;6.996;2022-09-17T09:12:41;3.13;;;1.30;;
4138;SDS011;2083;51.034;6.996;2022-09-17T09:17:43;9.70;;;1.33;;
4138;SDS011;2083;51.034;6.996;2022-09-17T09:20:18;1.47;;;0.83;;
4138;SDS011;2083;51.034;6.996;2022-09-17T09:22:50;5.10;;;0.77;;
4138;SDS011;2083;51.034;6.996;2022-09-17T09:25:23;1.10;;;0.70;;
4138;SDS011;2083;51.034;6.996;2022-09-17T09:27:55;4.50;;;1.43;;
4138;SDS011;2083;51.034;6.996;2022-09-17T09:30:25;4.30;;;0.90;;
4138;SDS011;2083;51.034;6.996;2022-09-17T09:35:29;3.33;;;1.00;;
4138;SDS011;2083;51.034;6.996;2022-09-17T09:37:58;3.30;;;0.70;;
4138;SDS011;2083;51.034;6.996;2022-09-17T09:42:55;7.17;;;1.00;;
4138;SDS011;2083;51.034;6.996;2022-09-17T09:48:09;6.97;;;1.23;;
4138;SDS011;2083;51.034;6.996;2022-09-17T09:50:44;3.63;;;1.37;;
4138;SDS011;2083;51.034;6.996;2022-09-17T09:53:32;6.40;;;0.90;;
4138;SDS011;2083;51.034;6.996;2022-09-17T09:56:05;2.63;;;0.80;;
4138;SDS011;2083;51.034;6.996;2022-09-17T09:58:35;4.07;;;1.20;;
4138;SDS011;2083;51.034;6.996;2022-09-17T10:01:02;3.03;;;1.53;;
4138;SDS011;2083;51.034;6.996;2022-09-17T10:06:02;4.60;;;0.80;;
4138;SDS011;2083;51.034;6.996;2022-09-17T10:08:30;1.77;;;0.87;;
4138;SDS011;2083;51.034;6.996;2022-09-17T10:13:23;1.87;;;0.70;;
4138;SDS011;2083;51.034;6.996;2022-09-17T10:15:49;6.17;;;0.80;;
4138;SDS011;2083;51.034;6.996;2022-09-17T10:18:16;5.23;;;1.03;;
4138;SDS011;2083;51.034;6.996;2022-09-17T10:23:18;7.30;;;1.03;;
4138;SDS011;2083;51.034;6.996;2022-09-17T10:25:44;5.10;;;1.00;;
4138;SDS011;2083;51.034;6.996;2022-09-17T10:30:58;8.13;;;1.07;;
4138;SDS011;2083;51.034;6.996;2022-09-17T10:33:26;1.23;;;0.67;;
4138;SDS011;2083;51.034;6.996;2022-09-17T10:35:53;4.30;;;0.87;;
4138;SDS011;2083;51.034;6.996;2022-09-17T10:38:25;4.00;;;1.27;;
4138;SDS011;2083;51.034;6.996;2022-09-17T10:40:53;6.73;;;0.70;;
4138;SDS011;2083;51.034;6.996;2022-09-17T10:43:31;3.10;;;0.83;;
4138;SDS011;2083;51.034;6.996;2022-09-17T10:45:57;2.97;;;0.70;;
4138;SDS011;2083;51.034;6.996;2022-09-17T10:48:25;1.73;;;0.80;;
4138;SDS011;2083;51.034;6.996;2022-09-17T10:50:53;4.83;;;1.00;;
4138;SDS011;2083;51.034;6.996;2022-09-17T10:53:20;5.10;;;0.97;;
4138;SDS011;2083;51.034;6.996;2022-09-17T11:11:37;2.80;;;0.70;;
4138;SDS011;2083;51.034;6.996;2022-09-17T11:19:25;2.40;;;0.73;;
4138;SDS011;2083;51.034;6.996;2022-09-17T11:24:37;2.47;;;0.70;;
4138;SDS011;2083;51.034;6.996;2022-09-17T11:37:31;3.43;;;0.97;;
4138;SDS011;2083;51.034;6.996;2022-09-17T11:39:59;3.90;;;0.90;;
4138;SDS011;2083;51.034;6.996;2022-09-17T11:45:18;4.00;;;0.80;;
4138;SDS011;2083;51.034;6.996;2022-09-17T11:47:50;1.00;;;0.60;;
4138;SDS011;2083;51.034;6.996;2022-09-17T11:55:27;1.90;;;0.60;;
4138;SDS011;2083;51.034;6.996;2022-09-17T11:57:58;3.93;;;1.00;;
4138;SDS011;2083;51.034;6.996;2022-09-17T12:00:25;0.80;;;0.70;;
4138;SDS011;2083;51.034;6.996;2022-09-17T12:02:56;3.07;;;0.60;;
4138;SDS011;2083;51.034;6.996;2022-09-17T12:05:38;0.77;;;0.50;;
4138;SDS011;2083;51.034;6.996;2022-09-17T12:08:18;1.20;;;0.60;;
4138;SDS011;2083;51.034;6.996;2022-09-17T12:10:56;5.53;;;1.20;;
4138;SDS011;2083;51.034;6.996;2022-09-17T12:16:01;2.43;;;0.80;;
4138;SDS011;2083;51.034;6.996;2022-09-17T12:21:15;2.80;;;0.80;;
4138;SDS011;2083;51.034;6.996;2022-09-17T12:23:48;3.83;;;0.90;;
4138;SDS011;2083;51.034;6.996;2022-09-17T12:26:43;3.03;;;0.70;;
4138;SDS011;2083;51.034;6.996;2022-09-17T12:32:13;2.10;;;0.50;;
4138;SDS011;2083;51.034;6.996;2022-09-17T12:37:17;5.50;;;0.83;;
4138;SDS011;2083;51.034;6.996;2022-09-17T12:42:43;4.63;;;0.67;;
4138;SDS011;2083;51.034;6.996;2022-09-17T12:45:47;2.70;;;0.80;;
4138;SDS011;2083;51.034;6.996;2022-09-17T12:48:21;4.00;;;0.70;;
4138;SDS011;2083;51.034;6.996;2022-09-17T12:53:42;1.40;;;1.10;;
4138;SDS011;2083;51.034;6.996;2022-09-17T12:56:22;1.97;;;0.63;;
4138;SDS011;2083;51.034;6.996;2022-09-17T12:58:56;5.23;;;0.77;;
4138;SDS011;2083;51.034;6.996;2022-09-17T13:01:36;3.03;;;0.80;;
4138;SDS011;2083;51.034;6.996;2022-09-17T13:06:35;1.63;;;1.00;;
4138;SDS011;2083;51.034;6.996;2022-09-17T13:13:57;1.30;;;0.73;;
4138;SDS011;2083;51.034;6.996;2022-09-17T13:16:33;3.83;;;1.03;;
4138;SDS011;2083;51.034;6.996;2022-09-17T13:21:38;3.53;;;0.80;;
4138;SDS011;2083;51.034;6.996;2022-09-17T13:24:15;1.33;;;0.90;;
4138;SDS011;2083;51.034;6.996;2022-09-17T13:26:41;1.63;;;0.70;;
4138;SDS011;2083;51.034;6.996;2022-09-17T13:29:09;7.50;;;0.90;;
4138;SDS011;2083;51.034;6.996;2022-09-17T13:34:25;0.60;;;0.53;;
4138;SDS011;2083;51.034;6.996;2022-09-17T13:36:54;0.70;;;0.60;;
4138;SDS011;2083;51.034;6.996;2022-09-17T13:42:06;0.80;;;0.70;;
4138;SDS011;2083;51.034;6.996;2022-09-17T13:44:36;0.90;;;0.60;;
4138;SDS011;2083;51.034;6.996;2022-09-17T13:47:11;2.63;;;0.63;;
4138;SDS011;2083;51.034;6.996;2022-09-17T13:49:45;2.40;;;1.00;;
4138;SDS011;2083;51.034;6.996;2022-09-17T13:52:13;1.63;;;0.50;;
4138;SDS011;2083;51.034;6.996;2022-09-17T13:54:39;0.73;;;0.70;;
4138;SDS011;2083;51.034;6.996;2022-09-17T13:57:10;2.03;;;0.60;;
4138;SDS011;2083;51.034;6.996;2022-09-17T13:59:36;2.97;;;0.70;;
4138;SDS011;2083;51.034;6.996;2022-09-17T14:04:33;1.67;;;0.70;;
4138;SDS011;2083;51.034;6.996;2022-09-17T14:06:59;1.47;;;0.80;;
4138;SDS011;2083;51.034;6.996;2022-09-17T14:09:30;3.60;;;0.63;;
4138;SDS011;2083;51.034;6.996;2022-09-17T14:11:57;2.43;;;0.83;;
4138;SDS011;2083;51.034;6.996;2022-09-17T14:14:34;3.70;;;1.13;;
4138;SDS011;2083;51.034;6.996;2022-09-17T14:17:04;3.90;;;1.00;;
4138;SDS011;2083;51.034;6.996;2022-09-17T14:22:00;1.30;;;0.90;;
4138;SDS011;2083;51.034;6.996;2022-09-17T14:26:56;2.67;;;1.00;;
4138;SDS011;2083;51.034;6.996;2022-09-17T14:32:06;5.30;;;1.47;;
4138;SDS011;2083;51.034;6.996;2022-09-17T14:34:32;1.70;;;0.70;;
4138;SDS011;2083;51.034;6.996;2022-09-17T14:36:58;2.00;;;0.60;;
4138;SDS011;2083;51.034;6.996;2022-09-17T14:39:26;2.60;;;2.40;;
4138;SDS011;2083;51.034;6.996;2022-09-17T14:41:53;1.00;;;0.90;;
4138;SDS011;2083;51.034;6.996;2022-09-17T14:44:21;5.23;;;0.77;;
4138;SDS011;2083;51.034;6.996;2022-09-17T14:46:50;3.33;;;0.80;;
4138;SDS011;2083;51.034;6.996;2022-09-17T14:51:46;2.33;;;0.93;;
4138;SDS011;2083;51.034;6.996;2022-09-17T14:54:19;10.03;;;0.70;;
4138;SDS011;2083;51.034;6.996;2022-09-17T14:56:50;2.33;;;0.80;;
4138;SDS011;2083;51.034;6.996;2022-09-17T15:01:49;3.40;;;1.00;;
4138;SDS011;2083;51.034;6.996;2022-09-17T15:06:44;3.53;;;1.00;;
4138;SDS011;2083;51.034;6.996;2022-09-17T15:09:31;4.30;;;0.83;;
4138;SDS011;2083;51.034;6.996;2022-09-17T15:11:57;4.87;;;0.80;;
4138;SDS011;2083;51.034;6.996;2022-09-17T15:14:28;6.00;;;0.80;;
4138;SDS011;2083;51.034;6.996;2022-09-17T15:16:55;1.93;;;0.97;;
4138;SDS011;2083;51.034;6.996;2022-09-17T15:19:40;4.23;;;1.00;;
4138;SDS011;2083;51.034;6.996;2022-09-17T15:22:08;8.07;;;1.03;;
4138;SDS011;2083;51.034;6.996;2022-09-17T15:24:40;8.83;;;1.40;;
4138;SDS011;2083;51.034;6.996;2022-09-17T15:27:26;4.13;;;1.00;;
4138;SDS011;2083;51.034;6.996;2022-09-17T15:29:58;1.90;;;0.80;;
4138;SDS011;2083;51.034;6.996;2022-09-17T15:32:26;7.63;;;1.00;;
4138;SDS011;2083;51.034;6.996;2022-09-17T15:38:01;4.73;;;0.93;;
4138;SDS011;2083;51.034;6.996;2022-09-17T15:40:30;3.73;;;1.03;;
4138;SDS011;2083;51.034;6.996;2022-09-17T15:43:42;7.10;;;1.00;;
4138;SDS011;2083;51.034;6.996;2022-09-17T15:45:43;10.07;;;1.10;;
4138;SDS011;2083;51.034;6.996;2022-09-17T15:50:52;6.00;;;1.40;;
4138;SDS011;2083;51.034;6.996;2022-09-17T15:53:23;6.50;;;1.10;;
4138;SDS011;2083;51.034;6.996;2022-09-17T15:58:50;3.67;;;1.27;;
4138;SDS011;2083;51.034;6.996;2022-09-17T16:08:48;8.63;;;1.20;;
4138;SDS011;2083;51.034;6.996;2022-09-17T16:11:18;8.40;;;0.80;;
4138;SDS011;2083;51.034;6.996;2022-09-17T16:13:45;2.67;;;0.80;;
4138;SDS011;2083;51.034;6.996;2022-09-17T16:16:14;2.70;;;0.80;;
4138;SDS011;2083;51.034;6.996;2022-09-17T16:18:41;4.17;;;0.87;;
4138;SDS011;2083;51.034;6.996;2022-09-17T16:21:09;4.00;;;0.80;;
4138;SDS011;2083;51.034;6.996;2022-09-17T16:23:35;7.73;;;0.70;;
4138;SDS011;2083;51.034;6.996;2022-09-17T16:26:01;8.07;;;1.37;;
4138;SDS011;2083;51.034;6.996;2022-09-17T16:28:27;8.33;;;1.10;;
4138;SDS011;2083;51.034;6.996;2022-09-17T16:30:54;6.97;;;1.37;;
4138;SDS011;2083;51.034;6.996;2022-09-17T16:33:20;8.93;;;1.17;;
4138;SDS011;2083;51.034;6.996;2022-09-17T16:35:46;4.90;;;1.20;;
4138;SDS011;2083;51.034;6.996;2022-09-17T16:38:13;12.07;;;3.00;;
4138;SDS011;2083;51.034;6.996;2022-09-17T16:40:40;4.77;;;2.30;;
4138;SDS011;2083;51.034;6.996;2022-09-17T16:43:06;7.77;;;1.50;;
4138;SDS011;2083;51.034;6.996;2022-09-17T16:45:32;2.37;;;1.20;;
4138;SDS011;2083;51.034;6.996;2022-09-17T16:47:59;4.63;;;1.20;;
4138;SDS011;2083;51.034;6.996;2022-09-17T16:50:25;4.87;;;1.30;;
4138;SDS011;2083;51.034;6.996;2022-09-17T16:52:51;8.57;;;1.73;;
4138;SDS011;2083;51.034;6.996;2022-09-17T16:55:17;16.20;;;2.00;;
4138;SDS011;2083;51.034;6.996;2022-09-17T16:57:44;4.40;;;1.23;;
4138;SDS011;2083;51.034;6.996;2022-09-17T17:00:11;6.83;;;1.43;;
4138;SDS011;2083;51.034;6.996;2022-09-17T17:02:40;8.53;;;1.23;;
4138;SDS011;2083;51.034;6.996;2022-09-17T17:05:06;7.03;;;0.87;;
4138;SDS011;2083;51.034;6.996;2022-09-17T17:07:33;8.63;;;1.10;;
4138;SDS011;2083;51.034;6.996;2022-09-17T17:09:59;8.53;;;1.13;;
4138;SDS011;2083;51.034;6.996;2022-09-17T17:12:26;4.63;;;0.60;;
4138;SDS011;2083;51.034;6.996;2022-09-17T17:14:52;3.73;;;0.80;;
4138;SDS011;2083;51.034;6.996;2022-09-17T17:17:18;3.80;;;0.73;;
4138;SDS011;2083;51.034;6.996;2022-09-17T17:19:45;6.33;;;0.87;;
4138;SDS011;2083;51.034;6.996;2022-09-17T17:22:11;3.70;;;0.80;;
4138;SDS011;2083;51.034;6.996;2022-09-17T17:24:38;5.50;;;1.23;;
4138;SDS011;2083;51.034;6.996;2022-09-17T17:27:04;9.77;;;1.67;;
4138;SDS011;2083;51.034;6.996;2022-09-17T17:29:32;1.97;;;0.70;;
4138;SDS011;2083;51.034;6.996;2022-09-17T17:31:59;2.70;;;1.00;;
4138;SDS011;2083;51.034;6.996;2022-09-17T17:34:25;2.20;;;1.07;;
4138;SDS011;2083;51.034;6.996;2022-09-17T17:36:51;9.00;;;1.20;;
4138;SDS011;2083;51.034;6.996;2022-09-17T17:39:17;8.40;;;0.90;;
4138;SDS011;2083;51.034;6.996;2022-09-17T17:41:43;7.03;;;1.47;;
4138;SDS011;2083;51.034;6.996;2022-09-17T17:44:09;1.97;;;0.90;;
4138;SDS011;2083;51.034;6.996;2022-09-17T17:46:38;9.70;;;1.63;;
4138;SDS011;2083;51.034;6.996;2022-09-17T17:49:04;5.57;;;1.20;;
4138;SDS011;2083;51.034;6.996;2022-09-17T17:51:30;7.00;;;1.30;;
4138;SDS011;2083;51.034;6.996;2022-09-17T17:53:56;3.13;;;1.43;;
4138;SDS011;2083;51.034;6.996;2022-09-17T17:56:22;3.77;;;1.90;;
4138;SDS011;2083;51.034;6.996;2022-09-17T17:58:55;8.43;;;1.00;;
4138;SDS011;2083;51.034;6.996;2022-09-17T18:01:29;11.00;;;1.60;;
4138;SDS011;2083;51.034;6.996;2022-09-17T18:03:55;6.03;;;1.20;;
4138;SDS011;2083;51.034;6.996;2022-09-17T18:06:22;9.97;;;1.37;;
4138;SDS011;2083;51.034;6.996;2022-09-17T18:08:48;12.13;;;1.57;;
4138;SDS011;2083;51.034;6.996;2022-09-17T18:11:14;9.40;;;1.70;;
4138;SDS011;2083;51.034;6.996;2022-09-17T18:13:40;8.83;;;1.30;;